createdAt,value
2018-09-21T00:00:59.729Z,4.60
2018-09-21T00:03:29.915Z,4.07
2018-09-21T00:06:01.398Z,3.80
2018-09-21T00:08:31.899Z,3.73
2018-09-21T00:11:02.292Z,4.50
2018-09-21T00:13:32.045Z,3.90
2018-09-21T00:16:02.159Z,3.70
2018-09-21T00:18:32.515Z,4.20
2018-09-21T00:21:02.964Z,4.00
2018-09-21T00:23:33.532Z,3.90
2018-09-21T00:26:03.303Z,4.13
2018-09-21T00:28:33.582Z,3.83
2018-09-21T00:31:03.892Z,3.90
2018-09-21T00:33:33.956Z,4.20
2018-09-21T00:36:05.405Z,4.57
2018-09-21T00:38:35.584Z,4.63
2018-09-21T00:41:05.650Z,3.97
2018-09-21T00:43:37.332Z,4.20
2018-09-21T00:46:08.361Z,3.70
2018-09-21T00:48:38.380Z,3.90
2018-09-21T00:51:09.198Z,4.37
2018-09-21T00:53:38.935Z,3.80
2018-09-21T00:56:09.483Z,4.20
2018-09-21T00:58:40.887Z,4.63
2018-09-21T01:01:11.877Z,4.77
2018-09-21T01:03:42.169Z,4.17
2018-09-21T01:06:12.045Z,4.30
2018-09-21T01:08:43.539Z,4.90
2018-09-21T01:11:13.656Z,4.27
2018-09-21T01:13:43.880Z,4.50
2018-09-21T01:16:15.287Z,3.90
2018-09-21T01:18:45.364Z,3.93
2018-09-21T01:21:16.523Z,4.70
2018-09-21T01:23:47.037Z,4.40
2018-09-21T01:26:17.175Z,4.43
2018-09-21T01:28:47.705Z,3.80
2018-09-21T01:31:17.633Z,4.80
2018-09-21T01:33:47.703Z,4.40
2018-09-21T01:36:18.200Z,4.07
2018-09-21T01:38:48.455Z,4.40
2018-09-21T01:41:22.014Z,4.70
2018-09-21T01:43:52.434Z,4.43
2018-09-21T01:46:22.607Z,4.10
2018-09-21T01:48:53.508Z,5.17
2018-09-21T01:51:25.347Z,4.30
2018-09-21T01:53:55.556Z,4.37
2018-09-21T01:56:25.646Z,4.50
2018-09-21T01:58:56.629Z,4.90
2018-09-21T02:01:26.927Z,4.47
2018-09-21T02:03:58.096Z,4.33
2018-09-21T02:06:29.215Z,4.60
2018-09-21T02:09:03.439Z,4.57
2018-09-21T02:11:33.269Z,5.03
2018-09-21T02:14:03.828Z,5.03
2018-09-21T02:16:35.460Z,4.60
2018-09-21T02:19:06.279Z,5.00
2018-09-21T02:21:36.758Z,4.47
2018-09-21T02:24:06.876Z,5.10
2018-09-21T02:26:36.983Z,4.90
2018-09-21T02:29:08.267Z,4.37
2018-09-21T02:31:38.684Z,4.50
2018-09-21T02:34:09.101Z,4.53
2018-09-21T02:36:39.284Z,5.03
2018-09-21T02:39:11.753Z,4.73
2018-09-21T02:41:42.767Z,5.27
2018-09-21T02:44:15.481Z,4.30
2018-09-21T02:46:46.563Z,4.70
2018-09-21T02:49:18.073Z,5.20
2018-09-21T02:51:48.104Z,4.93
2018-09-21T02:54:18.145Z,4.40
2018-09-21T02:56:49.348Z,5.27
2018-09-21T02:59:19.776Z,5.00
2018-09-21T03:01:49.929Z,5.37
2018-09-21T03:04:22.427Z,5.47
2018-09-21T03:06:54.040Z,4.03
2018-09-21T03:09:26.098Z,4.63
2018-09-21T03:11:57.076Z,4.70
2018-09-21T03:14:27.358Z,4.60
2018-09-21T03:16:57.206Z,5.23
2018-09-21T03:19:27.458Z,5.27
2018-09-21T03:21:59.369Z,5.60
2018-09-21T03:24:29.418Z,5.70
2018-09-21T03:26:59.616Z,5.80
2018-09-21T03:29:30.805Z,5.50
2018-09-21T03:32:00.684Z,5.00
2018-09-21T03:34:30.758Z,5.50
2018-09-21T03:37:01.418Z,5.73
2018-09-21T03:39:32.711Z,5.60
2018-09-21T03:42:02.780Z,5.80
2018-09-21T03:44:33.741Z,5.17
2018-09-21T03:47:04.177Z,4.90
2018-09-21T03:49:34.596Z,4.40
2018-09-21T03:52:05.824Z,5.30
2018-09-21T03:54:37.299Z,5.17
2018-09-21T03:57:09.140Z,5.20
2018-09-21T03:59:41.047Z,5.00
2018-09-21T04:02:12.420Z,5.03
2018-09-21T04:04:44.125Z,4.90
2018-09-21T04:07:16.432Z,5.30
2018-09-21T04:09:46.747Z,5.03
2018-09-21T04:12:17.046Z,5.10
2018-09-21T04:14:47.056Z,6.17
2018-09-21T04:17:17.575Z,5.90
2018-09-21T04:19:48.528Z,4.87
2018-09-21T04:22:18.923Z,5.50
2018-09-21T04:24:49.699Z,4.93
2018-09-21T04:27:20.290Z,5.27
2018-09-21T04:29:50.734Z,5.10
2018-09-21T04:32:21.196Z,5.43
2018-09-21T04:34:54.947Z,5.50
2018-09-21T04:37:25.735Z,5.10
2018-09-21T04:39:56.210Z,5.13
2018-09-21T04:42:26.308Z,5.70
2018-09-21T04:44:56.501Z,5.20
2018-09-21T04:47:26.587Z,5.20
2018-09-21T04:49:56.764Z,5.10
2018-09-21T04:52:27.929Z,5.00
2018-09-21T04:55:00.282Z,5.00
2018-09-21T04:57:30.279Z,5.43
2018-09-21T05:00:01.724Z,5.23
2018-09-21T05:02:33.127Z,5.33
2018-09-21T05:05:03.638Z,4.37
2018-09-21T05:07:35.088Z,5.07
2018-09-21T05:10:05.547Z,4.83
2018-09-21T05:12:36.052Z,5.13
2018-09-21T05:15:07.215Z,5.13
2018-09-21T05:17:39.075Z,5.70
2018-09-21T05:20:09.451Z,5.50
2018-09-21T05:22:40.039Z,4.70
2018-09-21T05:25:10.396Z,4.97
2018-09-21T05:27:40.953Z,5.63
2018-09-21T05:30:11.044Z,5.43
2018-09-21T05:32:41.484Z,4.90
2018-09-21T05:35:12.531Z,5.57
2018-09-21T05:37:44.979Z,5.90
2018-09-21T05:40:16.918Z,5.10
2018-09-21T05:42:46.749Z,5.23
2018-09-21T05:45:17.539Z,5.03
2018-09-21T05:47:47.675Z,5.30
2018-09-21T05:50:18.304Z,5.10
2018-09-21T05:52:48.706Z,5.27
2018-09-21T05:55:20.305Z,4.60
2018-09-21T05:57:58.314Z,5.60
2018-09-21T06:00:30.459Z,4.90
2018-09-21T06:03:01.098Z,5.87
2018-09-21T06:05:31.593Z,5.67
2018-09-21T06:08:01.915Z,5.50
2018-09-21T06:10:33.093Z,6.07
2018-09-21T06:13:04.836Z,4.97
2018-09-21T06:15:35.248Z,4.77
2018-09-21T06:18:05.925Z,5.53
2018-09-21T06:20:36.402Z,5.40
2018-09-21T06:23:07.139Z,5.40
2018-09-21T06:25:37.337Z,5.60
2018-09-21T06:28:07.770Z,5.73
2018-09-21T06:30:39.689Z,5.23
2018-09-21T06:33:09.993Z,5.50
2018-09-21T06:35:39.955Z,4.90
2018-09-21T06:38:10.505Z,5.30
2018-09-21T06:40:42.232Z,5.23
2018-09-21T06:43:14.377Z,5.83
2018-09-21T06:45:44.660Z,5.30
2018-09-21T06:48:14.976Z,6.07
2018-09-21T06:50:45.733Z,5.37
2018-09-21T06:53:15.825Z,5.03
2018-09-21T06:55:47.663Z,5.33
2018-09-21T06:58:17.893Z,5.70
2018-09-21T07:00:47.854Z,5.00
2018-09-21T07:03:18.699Z,4.80
2018-09-21T07:05:49.708Z,6.00
2018-09-21T07:08:20.452Z,5.90
2018-09-21T07:10:51.397Z,6.90
2018-09-21T07:13:21.578Z,4.93
2018-09-21T07:15:51.753Z,5.27
2018-09-21T07:18:22.961Z,4.90
2018-09-21T07:20:53.569Z,5.10
2018-09-21T07:23:24.197Z,5.77
2018-09-21T07:25:56.495Z,5.53
2018-09-21T07:28:26.995Z,5.70
2018-09-21T07:30:59.292Z,5.60
2018-09-21T07:33:29.596Z,5.80
2018-09-21T07:36:01.377Z,5.70
2018-09-21T07:38:34.201Z,5.57
2018-09-21T07:41:04.816Z,5.50
2018-09-21T07:43:37.367Z,5.10
2018-09-21T07:46:07.922Z,4.57
2018-09-21T07:48:38.035Z,5.50
2018-09-21T07:51:08.664Z,5.17
2018-09-21T07:53:39.172Z,5.23
2018-09-21T07:56:09.332Z,4.90
2018-09-21T07:58:40.321Z,3.97
2018-09-21T08:01:10.406Z,4.30
2018-09-21T08:03:40.642Z,3.37
2018-09-21T08:06:10.825Z,3.40
2018-09-21T08:08:43.068Z,3.40
2018-09-21T08:11:13.778Z,2.73
2018-09-21T08:13:44.068Z,2.70
2018-09-21T08:16:14.430Z,3.30
2018-09-21T08:18:44.684Z,3.00
2018-09-21T08:21:15.454Z,2.90
2018-09-21T08:23:47.647Z,2.60
2018-09-21T08:26:18.467Z,2.90
2018-09-21T08:28:49.908Z,2.93
2018-09-21T08:31:20.212Z,2.60
2018-09-21T08:33:50.874Z,2.80
2018-09-21T08:36:21.017Z,3.23
2018-09-21T08:38:51.247Z,3.70
2018-09-21T08:41:21.496Z,3.30
2018-09-21T08:43:53.739Z,3.23
2018-09-21T08:46:24.369Z,3.73
2018-09-21T08:48:54.656Z,2.90
2018-09-21T08:51:26.432Z,3.00
2018-09-21T08:53:57.458Z,2.80
2018-09-21T08:56:27.662Z,2.73
2018-09-21T08:58:57.964Z,3.00
2018-09-21T09:01:28.275Z,2.90
2018-09-21T09:03:58.845Z,2.57
2018-09-21T09:06:30.950Z,2.40
2018-09-21T09:09:03.103Z,2.87
2018-09-21T09:11:33.574Z,3.00
2018-09-21T09:14:03.520Z,2.70
2018-09-21T09:16:34.582Z,2.50
2018-09-21T09:19:07.060Z,2.70
2018-09-21T09:21:37.551Z,2.77
2018-09-21T09:24:09.573Z,2.90
2018-09-21T09:26:40.685Z,3.33
2018-09-21T09:29:10.960Z,3.00
2018-09-21T09:31:42.537Z,2.30
2018-09-21T09:34:12.446Z,1.90
2018-09-21T09:36:43.466Z,1.83
2018-09-21T09:39:15.130Z,1.80
2018-09-21T09:41:45.784Z,2.33
2018-09-21T09:44:16.659Z,1.83
2018-09-21T09:46:48.575Z,2.07
2018-09-21T09:49:18.905Z,2.37
2018-09-21T09:51:49.880Z,2.60
2018-09-21T09:54:20.202Z,2.20
2018-09-21T09:56:50.720Z,2.13
2018-09-21T09:59:23.765Z,2.90
2018-09-21T10:01:56.755Z,2.30
2018-09-21T10:04:30.014Z,2.37
2018-09-21T10:07:01.324Z,2.77
2018-09-21T10:09:31.950Z,2.03
2018-09-21T10:12:02.077Z,2.43
2018-09-21T10:14:35.151Z,2.60
2018-09-21T10:17:05.777Z,2.53
2018-09-21T10:19:36.064Z,2.80
2018-09-21T10:22:06.448Z,2.50
2018-09-21T10:24:39.285Z,2.80
2018-09-21T10:27:09.875Z,3.13
2018-09-21T10:29:41.396Z,3.00
2018-09-21T10:32:12.471Z,3.10
2018-09-21T10:34:43.504Z,3.30
2018-09-21T10:37:13.659Z,3.40
2018-09-21T10:39:45.980Z,3.43
2018-09-21T10:42:17.597Z,2.93
2018-09-21T10:44:47.591Z,3.33
2018-09-21T10:47:18.477Z,3.30
2018-09-21T10:49:49.416Z,3.20
2018-09-21T10:52:19.861Z,3.10
2018-09-21T10:54:51.344Z,3.20
2018-09-21T10:57:22.362Z,3.10
2018-09-21T10:59:52.568Z,3.73
2018-09-21T11:02:23.456Z,3.30
2018-09-21T11:04:53.643Z,2.87
2018-09-21T11:07:25.102Z,2.93
2018-09-21T11:09:56.045Z,3.20
2018-09-21T11:12:26.965Z,2.80
2018-09-21T11:14:58.954Z,3.40
2018-09-21T11:17:29.386Z,4.17
2018-09-21T11:19:59.244Z,3.10
2018-09-21T11:22:32.250Z,3.30
2018-09-21T11:25:04.226Z,3.23
2018-09-21T11:27:34.373Z,2.87
2018-09-21T11:30:07.853Z,3.50
2018-09-21T11:32:45.696Z,3.10
2018-09-21T11:35:16.176Z,2.97
2018-09-21T11:37:50.137Z,3.50
2018-09-21T11:40:20.526Z,3.20
2018-09-21T11:42:51.107Z,3.30
2018-09-21T11:45:24.093Z,3.77
2018-09-21T11:47:56.588Z,3.73
2018-09-21T11:50:27.415Z,3.60
2018-09-21T11:53:02.203Z,3.60
2018-09-21T11:55:32.978Z,3.33
2018-09-21T11:58:03.593Z,4.47
2018-09-21T12:00:35.531Z,4.17
2018-09-21T12:03:05.903Z,4.27
2018-09-21T12:05:38.397Z,3.50
2018-09-21T12:08:09.310Z,3.20
2018-09-21T12:10:39.395Z,3.20
2018-09-21T12:13:12.944Z,4.10
2018-09-21T12:15:50.983Z,3.43
2018-09-21T12:18:27.225Z,3.20
2018-09-21T12:21:05.223Z,2.70
2018-09-21T12:23:36.018Z,3.07
2018-09-21T12:26:10.107Z,2.70
2018-09-21T12:28:45.249Z,3.93
2018-09-21T12:31:32.527Z,2.97
2018-09-21T12:36:38.912Z,3.50
2018-09-21T12:39:16.491Z,3.23
2018-09-21T12:41:52.906Z,2.90
2018-09-21T12:44:24.649Z,3.10
2018-09-21T12:47:00.285Z,2.60
2018-09-21T12:49:33.193Z,2.30
2018-09-21T12:52:05.998Z,2.53
2018-09-21T12:54:45.816Z,2.00
2018-09-21T12:57:22.824Z,1.70
2018-09-21T13:00:01.225Z,1.80
2018-09-21T13:02:34.439Z,1.80
2018-09-21T13:05:06.539Z,1.73
2018-09-21T13:07:51.606Z,1.70
2018-09-21T13:10:26.689Z,1.43
2018-09-21T13:13:00.739Z,1.80
2018-09-21T13:15:40.031Z,1.67
2018-09-21T13:18:12.380Z,1.40
2018-09-21T13:20:43.209Z,1.47
2018-09-21T13:23:13.683Z,1.40
2018-09-21T13:25:44.562Z,1.60
2018-09-21T13:28:17.148Z,1.23
2018-09-21T13:30:47.868Z,1.50
2018-09-21T13:33:18.672Z,1.73
2018-09-21T13:35:48.667Z,1.40
2018-09-21T13:38:21.339Z,1.50
2018-09-21T13:40:52.048Z,1.40
2018-09-21T13:43:22.787Z,1.53
2018-09-21T13:45:54.608Z,1.63
2018-09-21T13:48:26.142Z,1.57
2018-09-21T13:50:56.836Z,1.37
2018-09-21T13:53:27.766Z,1.43
2018-09-21T13:55:58.308Z,1.20
2018-09-21T13:58:28.407Z,1.30
2018-09-21T14:01:17.143Z,1.07
2018-09-21T14:03:57.411Z,1.33
2018-09-21T14:06:27.519Z,1.00
2018-09-21T14:08:59.797Z,1.30
2018-09-21T14:11:31.571Z,4.00
2018-09-21T14:14:01.425Z,1.20
2018-09-21T14:16:32.783Z,1.47
2018-09-21T14:19:03.908Z,1.73
2018-09-21T14:21:39.118Z,1.43
2018-09-21T14:24:09.421Z,1.37
2018-09-21T14:26:39.924Z,1.20
2018-09-21T14:29:26.922Z,1.73
2018-09-21T14:32:09.896Z,2.30
2018-09-21T14:34:56.478Z,1.60
2018-09-21T14:37:28.508Z,1.47
2018-09-21T14:40:01.378Z,1.70
2018-09-21T14:42:34.343Z,1.30
2018-09-21T14:45:05.260Z,1.27
2018-09-21T14:47:35.692Z,1.10
2018-09-21T14:50:06.560Z,1.20
2018-09-21T14:52:36.484Z,1.27
2018-09-21T14:55:08.332Z,1.50
2018-09-21T14:57:38.123Z,1.10
2018-09-21T15:00:09.047Z,1.10
2018-09-21T15:02:40.878Z,1.37
2018-09-21T15:05:12.085Z,1.10
2018-09-21T15:07:42.987Z,1.20
2018-09-21T15:10:13.946Z,1.10
2018-09-21T15:12:44.084Z,1.13
2018-09-21T15:15:14.040Z,1.33
2018-09-21T15:17:44.306Z,1.10
2018-09-21T15:20:14.506Z,1.70
2018-09-21T15:22:45.257Z,1.00
2018-09-21T15:25:16.810Z,1.30
2018-09-21T15:27:47.392Z,1.30
2018-09-21T15:30:18.360Z,2.03
2018-09-21T15:32:49.494Z,1.23
2018-09-21T15:35:19.780Z,1.30
2018-09-21T15:37:50.916Z,1.30
2018-09-21T15:40:23.957Z,1.50
2018-09-21T15:42:54.081Z,1.20
2018-09-21T15:45:27.678Z,1.20
2018-09-21T15:48:01.434Z,1.20
2018-09-21T15:50:32.976Z,1.03
2018-09-21T15:53:07.608Z,1.10
2018-09-21T15:55:40.976Z,1.70
2018-09-21T15:58:14.569Z,1.23
2018-09-21T16:00:52.113Z,1.20
2018-09-21T16:03:23.738Z,1.20
2018-09-21T16:05:54.108Z,1.27
2018-09-21T16:08:28.497Z,1.23
2018-09-21T16:10:59.900Z,1.10
2018-09-21T16:13:30.768Z,1.53
2018-09-21T16:16:02.067Z,1.10
2018-09-21T16:18:31.984Z,1.30
2018-09-21T16:21:03.295Z,1.70
2018-09-21T16:23:34.424Z,1.30
2018-09-21T16:26:04.797Z,1.50
2018-09-21T16:28:36.399Z,1.40
2018-09-21T16:31:07.601Z,1.23
2018-09-21T16:33:42.287Z,1.67
2018-09-21T16:36:22.683Z,1.50
2018-09-21T16:38:53.357Z,1.57
2018-09-21T16:41:28.978Z,1.30
2018-09-21T16:43:59.076Z,1.20
2018-09-21T16:46:29.340Z,1.47
2018-09-21T16:49:04.849Z,1.23
2018-09-21T16:51:35.916Z,1.20
2018-09-21T16:54:05.781Z,1.30
2018-09-21T16:56:38.755Z,1.40
2018-09-21T16:59:10.885Z,1.50
2018-09-21T17:01:42.288Z,1.23
2018-09-21T17:04:15.549Z,1.10
2018-09-21T17:06:49.109Z,1.30
2018-09-21T17:09:20.278Z,1.13
2018-09-21T17:11:52.098Z,1.20
2018-09-21T17:14:23.848Z,1.13
2018-09-21T17:16:55.108Z,1.10
2018-09-21T17:19:25.665Z,1.40
2018-09-21T17:21:56.035Z,1.37
2018-09-21T17:24:27.767Z,1.00
2018-09-21T17:27:00.317Z,1.33
2018-09-21T17:29:32.768Z,1.53
2018-09-21T17:32:04.036Z,1.30
2018-09-21T17:34:35.432Z,1.50
2018-09-21T17:37:05.529Z,1.60
2018-09-21T17:39:36.209Z,1.27
2018-09-21T17:42:08.800Z,1.30
2018-09-21T17:44:40.713Z,1.60
2018-09-21T17:47:11.175Z,1.40
2018-09-21T17:49:41.497Z,1.20
2018-09-21T17:52:12.667Z,1.20
2018-09-21T17:54:42.960Z,1.50
2018-09-21T17:57:14.645Z,1.30
2018-09-21T17:59:45.109Z,1.33
2018-09-21T18:02:17.613Z,1.23
2018-09-21T18:04:51.496Z,1.20
2018-09-21T18:07:23.290Z,1.50
2018-09-21T18:09:54.988Z,1.93
2018-09-21T18:12:27.210Z,1.43
2018-09-21T18:14:57.930Z,1.20
2018-09-21T18:17:28.900Z,1.37
2018-09-21T18:19:59.866Z,1.10
2018-09-21T18:22:30.353Z,1.50
2018-09-21T18:25:00.652Z,1.17
2018-09-21T18:27:31.219Z,1.20
2018-09-21T18:30:03.282Z,1.30
2018-09-21T18:32:34.271Z,1.40
2018-09-21T18:35:04.751Z,1.07
2018-09-21T18:37:37.163Z,1.30
2018-09-21T18:40:07.918Z,1.30
2018-09-21T18:42:38.548Z,1.20
2018-09-21T18:45:08.845Z,1.10
2018-09-21T18:47:40.044Z,1.00
2018-09-21T18:50:12.622Z,1.50
2018-09-21T18:52:44.181Z,1.40
2018-09-21T18:55:14.076Z,1.43
2018-09-21T18:57:44.661Z,1.30
2018-09-21T19:00:15.423Z,1.10
2018-09-21T19:02:46.422Z,1.30
2018-09-21T19:05:17.584Z,1.30
2018-09-21T19:07:47.892Z,1.60
2018-09-21T19:10:18.340Z,1.63
2018-09-21T19:12:50.211Z,1.70
2018-09-21T19:15:21.088Z,1.20
2018-09-21T19:17:54.003Z,1.67
2018-09-21T19:20:24.789Z,1.80
2018-09-21T19:22:55.073Z,1.67
2018-09-21T19:25:25.026Z,1.43
2018-09-21T19:27:55.868Z,1.10
2018-09-21T19:30:27.189Z,1.20
2018-09-21T19:32:57.595Z,1.60
2018-09-21T19:35:27.934Z,2.03
2018-09-21T19:37:58.425Z,1.60
2018-09-21T19:40:28.596Z,1.57
2018-09-21T19:43:00.452Z,1.57
2018-09-21T19:45:31.529Z,1.57
2018-09-21T19:48:02.101Z,1.23
2018-09-21T19:50:33.725Z,1.37
2018-09-21T19:53:05.107Z,1.40
2018-09-21T19:55:35.816Z,1.43
2018-09-21T19:58:07.568Z,1.43
2018-09-21T20:00:40.528Z,1.47
2018-09-21T20:03:11.256Z,1.50
2018-09-21T20:05:41.535Z,1.60
2018-09-21T20:08:12.798Z,1.90
2018-09-21T20:10:44.251Z,1.50
2018-09-21T20:13:15.617Z,1.60
2018-09-21T20:15:45.892Z,1.53
2018-09-21T20:18:16.134Z,1.60
2018-09-21T20:20:46.797Z,1.33
2018-09-21T20:23:16.704Z,1.30
2018-09-21T20:25:46.949Z,1.40
2018-09-21T20:28:20.372Z,1.70
2018-09-21T20:33:01.086Z,1.57
2018-09-21T20:35:32.880Z,1.67
2018-09-21T20:38:03.046Z,1.50
2018-09-21T20:40:33.410Z,1.63
2018-09-21T20:43:04.623Z,1.60
2018-09-21T20:45:35.232Z,1.47
2018-09-21T20:48:05.485Z,1.80
2018-09-21T20:50:35.766Z,1.73
2018-09-21T20:53:06.326Z,1.63
2018-09-21T20:55:37.608Z,1.50
2018-09-21T20:58:09.848Z,1.90
2018-09-21T21:00:40.703Z,1.40
2018-09-21T21:03:11.865Z,1.67
2018-09-21T21:05:44.132Z,1.80
2018-09-21T21:08:28.105Z,1.43
2018-09-21T21:10:58.679Z,1.70
2018-09-21T21:13:30.709Z,2.00
2018-09-21T21:16:01.053Z,1.70
2018-09-21T21:18:30.988Z,1.60
2018-09-21T21:21:04.036Z,1.70
2018-09-21T21:23:34.565Z,1.80
2018-09-21T21:26:05.483Z,1.73
2018-09-21T21:28:35.869Z,2.87
2018-09-21T21:31:06.425Z,1.60
2018-09-21T21:33:36.483Z,1.90
2018-09-21T21:36:06.951Z,1.90
2018-09-21T21:38:37.529Z,1.70
2018-09-21T21:41:07.816Z,2.13
2018-09-21T21:43:38.676Z,2.30
2018-09-21T21:46:09.902Z,2.23
2018-09-21T21:48:40.820Z,2.43
2018-09-21T21:51:11.652Z,1.70
2018-09-21T21:53:43.642Z,2.20
2018-09-21T21:56:15.223Z,2.10
2018-09-21T21:58:47.568Z,2.40
2018-09-21T22:01:23.496Z,2.00
2018-09-21T22:03:54.819Z,2.40
2018-09-21T22:06:26.863Z,2.47
2018-09-21T22:08:58.437Z,2.70
2018-09-21T22:11:34.770Z,2.30
2018-09-21T22:14:08.313Z,2.53
2018-09-21T22:16:38.392Z,2.53
2018-09-21T22:19:09.646Z,2.43
2018-09-21T22:21:41.944Z,2.53
2018-09-21T22:24:12.796Z,2.20
2018-09-21T22:26:43.534Z,2.40
2018-09-21T22:29:14.781Z,2.40
2018-09-21T22:31:44.879Z,1.70
2018-09-21T22:34:15.094Z,1.70
2018-09-21T22:36:45.044Z,2.23
2018-09-21T22:39:15.936Z,1.73
2018-09-21T22:41:46.337Z,2.00
2018-09-21T22:44:16.663Z,1.73
2018-09-21T22:46:47.253Z,1.83
2018-09-21T22:49:20.310Z,1.70
2018-09-21T22:51:50.720Z,1.63
2018-09-21T22:54:20.991Z,2.27
2018-09-21T22:56:50.914Z,2.10
2018-09-21T22:59:21.408Z,2.13
2018-09-21T23:01:51.828Z,1.73
2018-09-21T23:04:21.884Z,1.90
2018-09-21T23:06:52.074Z,1.70
2018-09-21T23:09:22.139Z,2.07
2018-09-21T23:11:53.711Z,1.70
2018-09-21T23:14:24.747Z,1.70
2018-09-21T23:16:54.989Z,1.50
2018-09-21T23:19:27.309Z,1.70
2018-09-21T23:21:58.376Z,1.27
2018-09-21T23:24:28.871Z,1.80
2018-09-21T23:26:59.626Z,1.77
2018-09-21T23:29:31.250Z,1.87
2018-09-21T23:32:01.552Z,1.80
2018-09-21T23:34:31.919Z,2.20
2018-09-21T23:37:03.081Z,1.80
2018-09-21T23:39:33.092Z,1.73
2018-09-21T23:42:03.615Z,1.87
2018-09-21T23:44:33.736Z,2.10
2018-09-21T23:47:04.778Z,2.20
2018-09-21T23:49:34.764Z,2.00
2018-09-21T23:52:04.920Z,2.70
2018-09-21T23:54:35.362Z,2.20
2018-09-21T23:57:06.281Z,2.23
2018-09-21T23:59:36.441Z,2.53
